sensor_id;sensor_type;location;lat;lon;timestamp;temperature;humidity
54429;DHT22;40337;52.978;6.310;2024-02-21T00:01:56;10.50;99.90
54429;DHT22;40337;52.978;6.310;2024-02-21T00:04:21;10.50;99.90
54429;DHT22;40337;52.978;6.310;2024-02-21T00:06:47;10.50;99.90
54429;DHT22;40337;52.978;6.310;2024-02-21T00:09:13;10.50;99.90
54429;DHT22;40337;52.978;6.310;2024-02-21T00:11:38;10.50;99.90
54429;DHT22;40337;52.978;6.310;2024-02-21T00:14:04;10.40;99.90
54429;DHT22;40337;52.978;6.310;2024-02-21T00:16:30;10.40;99.90
54429;DHT22;40337;52.978;6.310;2024-02-21T00:18:55;10.50;99.90
54429;DHT22;40337;52.978;6.310;2024-02-21T00:21:21;10.40;99.90
54429;DHT22;40337;52.978;6.310;2024-02-21T00:23:47;10.40;99.90
54429;DHT22;40337;52.978;6.310;2024-02-21T00:26:14;10.40;99.90
54429;DHT22;40337;52.978;6.310;2024-02-21T00:28:40;10.40;99.90
54429;DHT22;40337;52.978;6.310;2024-02-21T00:31:06;10.50;99.90
54429;DHT22;40337;52.978;6.310;2024-02-21T00:33:31;10.50;99.90
54429;DHT22;40337;52.978;6.310;2024-02-21T00:35:57;10.50;99.90
54429;DHT22;40337;52.978;6.310;2024-02-21T00:38:23;10.40;99.90
54429;DHT22;40337;52.978;6.310;2024-02-21T00:40:48;10.50;99.90
54429;DHT22;40337;52.978;6.310;2024-02-21T00:43:14;10.40;99.90
54429;DHT22;40337;52.978;6.310;2024-02-21T00:45:40;10.40;99.90
54429;DHT22;40337;52.978;6.310;2024-02-21T00:48:05;10.40;99.90
54429;DHT22;40337;52.978;6.310;2024-02-21T00:50:31;10.40;99.90
54429;DHT22;40337;52.978;6.310;2024-02-21T00:52:57;10.40;99.90
54429;DHT22;40337;52.978;6.310;2024-02-21T00:55:23;10.40;99.90
54429;DHT22;40337;52.978;6.310;2024-02-21T00:57:48;10.30;99.90
54429;DHT22;40337;52.978;6.310;2024-02-21T01:00:14;10.30;99.90
54429;DHT22;40337;52.978;6.310;2024-02-21T01:02:40;10.30;99.90
54429;DHT22;40337;52.978;6.310;2024-02-21T01:05:06;10.30;99.90
54429;DHT22;40337;52.978;6.310;2024-02-21T01:07:32;10.20;99.90
54429;DHT22;40337;52.978;6.310;2024-02-21T01:09:57;10.20;99.90
54429;DHT22;40337;52.978;6.310;2024-02-21T01:12:23;10.20;99.90
54429;DHT22;40337;52.978;6.310;2024-02-21T01:14:49;10.20;99.90
54429;DHT22;40337;52.978;6.310;2024-02-21T01:17:15;10.20;99.90
54429;DHT22;40337;52.978;6.310;2024-02-21T01:19:41;10.20;99.90
54429;DHT22;40337;52.978;6.310;2024-02-21T01:22:06;10.20;99.90
54429;DHT22;40337;52.978;6.310;2024-02-21T01:24:32;10.30;99.90
54429;DHT22;40337;52.978;6.310;2024-02-21T01:26:58;10.20;99.90
54429;DHT22;40337;52.978;6.310;2024-02-21T01:29:23;10.20;99.90
54429;DHT22;40337;52.978;6.310;2024-02-21T01:31:49;10.20;99.90
54429;DHT22;40337;52.978;6.310;2024-02-21T01:34:14;10.20;99.90
54429;DHT22;40337;52.978;6.310;2024-02-21T01:36:40;10.20;99.90
54429;DHT22;40337;52.978;6.310;2024-02-21T01:39:07;10.20;99.90
54429;DHT22;40337;52.978;6.310;2024-02-21T01:41:33;10.20;99.90
54429;DHT22;40337;52.978;6.310;2024-02-21T01:43:58;10.20;99.90
54429;DHT22;40337;52.978;6.310;2024-02-21T01:46:24;10.20;99.90
54429;DHT22;40337;52.978;6.310;2024-02-21T01:48:57;10.20;99.90
54429;DHT22;40337;52.978;6.310;2024-02-21T01:51:26;10.20;99.90
54429;DHT22;40337;52.978;6.310;2024-02-21T01:53:53;10.20;99.90
54429;DHT22;40337;52.978;6.310;2024-02-21T01:56:19;10.20;99.90
54429;DHT22;40337;52.978;6.310;2024-02-21T01:58:46;10.20;99.90
54429;DHT22;40337;52.978;6.310;2024-02-21T02:01:12;10.20;99.90
54429;DHT22;40337;52.978;6.310;2024-02-21T02:03:38;10.20;99.90
54429;DHT22;40337;52.978;6.310;2024-02-21T02:06:05;10.20;99.90
54429;DHT22;40337;52.978;6.310;2024-02-21T02:08:32;10.20;99.90
54429;DHT22;40337;52.978;6.310;2024-02-21T02:10:59;10.20;99.90
54429;DHT22;40337;52.978;6.310;2024-02-21T02:13:25;10.20;99.90
54429;DHT22;40337;52.978;6.310;2024-02-21T02:15:50;10.20;99.90
54429;DHT22;40337;52.978;6.310;2024-02-21T02:18:18;10.20;99.90
54429;DHT22;40337;52.978;6.310;2024-02-21T02:20:44;10.20;99.90
54429;DHT22;40337;52.978;6.310;2024-02-21T02:23:30;10.20;99.90
54429;DHT22;40337;52.978;6.310;2024-02-21T02:25:57;10.20;99.90
54429;DHT22;40337;52.978;6.310;2024-02-21T02:28:23;10.20;99.90
54429;DHT22;40337;52.978;6.310;2024-02-21T02:30:49;10.20;99.90
54429;DHT22;40337;52.978;6.310;2024-02-21T02:33:15;10.20;99.90
54429;DHT22;40337;52.978;6.310;2024-02-21T02:35:43;10.20;99.90
54429;DHT22;40337;52.978;6.310;2024-02-21T02:38:08;10.20;99.90
54429;DHT22;40337;52.978;6.310;2024-02-21T02:40:35;10.20;99.90
54429;DHT22;40337;52.978;6.310;2024-02-21T02:43:01;10.20;99.90
54429;DHT22;40337;52.978;6.310;2024-02-21T02:45:27;10.20;99.90
54429;DHT22;40337;52.978;6.310;2024-02-21T02:47:53;10.20;99.90
54429;DHT22;40337;52.978;6.310;2024-02-21T02:50:19;10.20;99.90
54429;DHT22;40337;52.978;6.310;2024-02-21T02:52:45;10.20;99.90
54429;DHT22;40337;52.978;6.310;2024-02-21T02:55:11;10.20;99.90
54429;DHT22;40337;52.978;6.310;2024-02-21T02:57:37;10.20;99.90
54429;DHT22;40337;52.978;6.310;2024-02-21T03:00:03;10.20;99.90
54429;DHT22;40337;52.978;6.310;2024-02-21T03:02:29;10.20;99.90
54429;DHT22;40337;52.978;6.310;2024-02-21T03:04:56;10.20;99.90
54429;DHT22;40337;52.978;6.310;2024-02-21T03:07:22;10.20;99.90
54429;DHT22;40337;52.978;6.310;2024-02-21T03:09:47;10.20;99.90
54429;DHT22;40337;52.978;6.310;2024-02-21T03:12:13;10.20;99.90
54429;DHT22;40337;52.978;6.310;2024-02-21T03:14:44;10.20;99.90
54429;DHT22;40337;52.978;6.310;2024-02-21T03:17:10;10.20;99.90
54429;DHT22;40337;52.978;6.310;2024-02-21T03:19:35;10.20;99.90
54429;DHT22;40337;52.978;6.310;2024-02-21T03:22:01;10.30;99.90
54429;DHT22;40337;52.978;6.310;2024-02-21T03:24:26;10.20;99.90
54429;DHT22;40337;52.978;6.310;2024-02-21T03:26:52;10.20;99.90
54429;DHT22;40337;52.978;6.310;2024-02-21T03:29:18;10.20;99.90
54429;DHT22;40337;52.978;6.310;2024-02-21T03:31:43;10.30;99.90
54429;DHT22;40337;52.978;6.310;2024-02-21T03:34:10;10.20;99.90
54429;DHT22;40337;52.978;6.310;2024-02-21T03:36:36;10.20;99.90
54429;DHT22;40337;52.978;6.310;2024-02-21T03:39:02;10.20;99.90
54429;DHT22;40337;52.978;6.310;2024-02-21T03:41:28;10.20;99.90
54429;DHT22;40337;52.978;6.310;2024-02-21T03:43:54;10.20;99.90
54429;DHT22;40337;52.978;6.310;2024-02-21T03:46:19;10.20;99.90
54429;DHT22;40337;52.978;6.310;2024-02-21T03:48:45;10.20;99.90
54429;DHT22;40337;52.978;6.310;2024-02-21T03:51:11;10.20;99.90
54429;DHT22;40337;52.978;6.310;2024-02-21T03:53:37;10.20;99.90
54429;DHT22;40337;52.978;6.310;2024-02-21T03:56:03;10.20;99.90
54429;DHT22;40337;52.978;6.310;2024-02-21T03:58:30;10.30;99.90
54429;DHT22;40337;52.978;6.310;2024-02-21T04:00:56;10.20;99.90
54429;DHT22;40337;52.978;6.310;2024-02-21T04:03:21;10.30;99.90
54429;DHT22;40337;52.978;6.310;2024-02-21T04:05:47;10.20;99.90
54429;DHT22;40337;52.978;6.310;2024-02-21T04:08:13;10.20;99.90
54429;DHT22;40337;52.978;6.310;2024-02-21T04:10:39;10.30;99.90
54429;DHT22;40337;52.978;6.310;2024-02-21T04:13:06;10.20;99.90
54429;DHT22;40337;52.978;6.310;2024-02-21T04:15:32;10.30;99.90
54429;DHT22;40337;52.978;6.310;2024-02-21T04:17:57;10.30;99.90
54429;DHT22;40337;52.978;6.310;2024-02-21T04:20:23;10.30;99.90
54429;DHT22;40337;52.978;6.310;2024-02-21T04:22:48;10.30;99.90
54429;DHT22;40337;52.978;6.310;2024-02-21T04:25:14;10.30;99.90
54429;DHT22;40337;52.978;6.310;2024-02-21T04:27:40;10.30;99.90
54429;DHT22;40337;52.978;6.310;2024-02-21T04:30:07;10.20;99.90
54429;DHT22;40337;52.978;6.310;2024-02-21T04:32:32;10.30;99.90
54429;DHT22;40337;52.978;6.310;2024-02-21T04:34:58;10.20;99.90
54429;DHT22;40337;52.978;6.310;2024-02-21T04:37:24;10.20;99.90
54429;DHT22;40337;52.978;6.310;2024-02-21T04:39:50;10.20;99.90
54429;DHT22;40337;52.978;6.310;2024-02-21T04:42:16;10.20;99.90
54429;DHT22;40337;52.978;6.310;2024-02-21T04:44:41;10.20;99.90
54429;DHT22;40337;52.978;6.310;2024-02-21T04:47:07;10.20;99.90
54429;DHT22;40337;52.978;6.310;2024-02-21T04:49:33;10.20;99.90
54429;DHT22;40337;52.978;6.310;2024-02-21T04:51:59;10.20;99.90
54429;DHT22;40337;52.978;6.310;2024-02-21T04:54:25;10.20;99.90
54429;DHT22;40337;52.978;6.310;2024-02-21T04:56:51;10.20;99.90
54429;DHT22;40337;52.978;6.310;2024-02-21T04:59:17;10.20;99.90
54429;DHT22;40337;52.978;6.310;2024-02-21T05:01:43;10.20;99.90
54429;DHT22;40337;52.978;6.310;2024-02-21T05:04:08;10.20;99.90
54429;DHT22;40337;52.978;6.310;2024-02-21T05:06:38;10.20;99.90
54429;DHT22;40337;52.978;6.310;2024-02-21T05:09:04;10.20;99.90
54429;DHT22;40337;52.978;6.310;2024-02-21T05:11:31;10.20;99.90
54429;DHT22;40337;52.978;6.310;2024-02-21T05:13:56;10.20;99.90
54429;DHT22;40337;52.978;6.310;2024-02-21T05:16:22;10.20;99.90
54429;DHT22;40337;52.978;6.310;2024-02-21T05:18:48;10.20;99.90
54429;DHT22;40337;52.978;6.310;2024-02-21T05:21:13;10.10;99.90
54429;DHT22;40337;52.978;6.310;2024-02-21T05:23:39;10.10;99.90
54429;DHT22;40337;52.978;6.310;2024-02-21T05:26:05;10.10;99.90
54429;DHT22;40337;52.978;6.310;2024-02-21T05:28:31;10.10;99.90
54429;DHT22;40337;52.978;6.310;2024-02-21T05:30:57;10.10;99.90
54429;DHT22;40337;52.978;6.310;2024-02-21T05:33:22;10.20;99.90
54429;DHT22;40337;52.978;6.310;2024-02-21T05:35:49;10.10;99.90
54429;DHT22;40337;52.978;6.310;2024-02-21T05:38:15;10.20;99.90
54429;DHT22;40337;52.978;6.310;2024-02-21T05:40:41;10.20;99.90
54429;DHT22;40337;52.978;6.310;2024-02-21T05:43:09;10.20;99.90
54429;DHT22;40337;52.978;6.310;2024-02-21T05:45:36;10.20;99.90
54429;DHT22;40337;52.978;6.310;2024-02-21T05:48:02;10.10;99.90
54429;DHT22;40337;52.978;6.310;2024-02-21T05:50:30;10.10;99.90
54429;DHT22;40337;52.978;6.310;2024-02-21T05:52:56;10.20;99.90
54429;DHT22;40337;52.978;6.310;2024-02-21T05:55:22;10.20;99.90
54429;DHT22;40337;52.978;6.310;2024-02-21T05:57:47;10.20;99.90
54429;DHT22;40337;52.978;6.310;2024-02-21T06:00:13;10.10;99.90
54429;DHT22;40337;52.978;6.310;2024-02-21T06:02:39;10.20;99.90
54429;DHT22;40337;52.978;6.310;2024-02-21T06:05:06;10.20;99.90
54429;DHT22;40337;52.978;6.310;2024-02-21T06:07:35;10.20;99.90
54429;DHT22;40337;52.978;6.310;2024-02-21T06:10:04;10.10;99.90
54429;DHT22;40337;52.978;6.310;2024-02-21T06:12:30;10.20;99.90
54429;DHT22;40337;52.978;6.310;2024-02-21T06:14:55;10.20;99.90
54429;DHT22;40337;52.978;6.310;2024-02-21T06:17:21;10.20;99.90
54429;DHT22;40337;52.978;6.310;2024-02-21T06:19:47;10.20;99.90
54429;DHT22;40337;52.978;6.310;2024-02-21T06:22:12;10.20;99.90
54429;DHT22;40337;52.978;6.310;2024-02-21T06:24:38;10.20;99.90
54429;DHT22;40337;52.978;6.310;2024-02-21T06:27:05;10.20;99.90
54429;DHT22;40337;52.978;6.310;2024-02-21T06:29:34;10.20;99.90
54429;DHT22;40337;52.978;6.310;2024-02-21T06:32:02;10.20;99.90
54429;DHT22;40337;52.978;6.310;2024-02-21T06:34:27;10.20;99.90
54429;DHT22;40337;52.978;6.310;2024-02-21T06:36:53;10.20;99.90
54429;DHT22;40337;52.978;6.310;2024-02-21T06:39:19;10.20;99.90
54429;DHT22;40337;52.978;6.310;2024-02-21T06:41:44;10.20;99.90
54429;DHT22;40337;52.978;6.310;2024-02-21T06:44:10;10.20;99.90
54429;DHT22;40337;52.978;6.310;2024-02-21T06:46:36;10.20;99.90
54429;DHT22;40337;52.978;6.310;2024-02-21T06:49:02;10.20;99.90
54429;DHT22;40337;52.978;6.310;2024-02-21T06:51:30;10.30;99.90
54429;DHT22;40337;52.978;6.310;2024-02-21T06:53:57;10.20;99.90
54429;DHT22;40337;52.978;6.310;2024-02-21T06:56:24;10.30;99.90
54429;DHT22;40337;52.978;6.310;2024-02-21T06:58:54;10.20;99.90
54429;DHT22;40337;52.978;6.310;2024-02-21T07:01:20;10.20;99.90
54429;DHT22;40337;52.978;6.310;2024-02-21T07:03:46;10.20;99.90
54429;DHT22;40337;52.978;6.310;2024-02-21T07:06:11;10.20;99.90
54429;DHT22;40337;52.978;6.310;2024-02-21T07:08:38;10.20;99.90
54429;DHT22;40337;52.978;6.310;2024-02-21T07:11:04;10.20;99.90
54429;DHT22;40337;52.978;6.310;2024-02-21T07:13:30;10.20;99.90
54429;DHT22;40337;52.978;6.310;2024-02-21T07:15:56;10.20;99.90
54429;DHT22;40337;52.978;6.310;2024-02-21T07:18:21;10.20;99.90
54429;DHT22;40337;52.978;6.310;2024-02-21T07:20:47;10.20;99.90
54429;DHT22;40337;52.978;6.310;2024-02-21T07:23:12;10.20;99.90
54429;DHT22;40337;52.978;6.310;2024-02-21T07:25:39;10.30;99.90
54429;DHT22;40337;52.978;6.310;2024-02-21T07:28:05;10.20;99.90
54429;DHT22;40337;52.978;6.310;2024-02-21T07:30:31;10.20;99.90
54429;DHT22;40337;52.978;6.310;2024-02-21T07:32:57;10.20;99.90
54429;DHT22;40337;52.978;6.310;2024-02-21T07:35:23;10.20;99.90
54429;DHT22;40337;52.978;6.310;2024-02-21T07:37:48;10.30;99.90
54429;DHT22;40337;52.978;6.310;2024-02-21T07:40:15;10.30;99.90
54429;DHT22;40337;52.978;6.310;2024-02-21T07:42:41;10.20;99.90
54429;DHT22;40337;52.978;6.310;2024-02-21T07:45:08;10.20;99.90
54429;DHT22;40337;52.978;6.310;2024-02-21T07:47:34;10.20;99.90
54429;DHT22;40337;52.978;6.310;2024-02-21T07:49:59;10.20;99.90
54429;DHT22;40337;52.978;6.310;2024-02-21T07:52:25;10.20;99.90
54429;DHT22;40337;52.978;6.310;2024-02-21T07:54:51;10.20;99.90
54429;DHT22;40337;52.978;6.310;2024-02-21T07:57:17;10.20;99.90
54429;DHT22;40337;52.978;6.310;2024-02-21T07:59:42;10.20;99.90
54429;DHT22;40337;52.978;6.310;2024-02-21T08:02:08;10.20;99.90
54429;DHT22;40337;52.978;6.310;2024-02-21T08:04:34;10.20;99.90
54429;DHT22;40337;52.978;6.310;2024-02-21T08:07:00;10.20;99.90
54429;DHT22;40337;52.978;6.310;2024-02-21T08:09:28;10.20;99.90
54429;DHT22;40337;52.978;6.310;2024-02-21T08:11:54;10.20;99.90
54429;DHT22;40337;52.978;6.310;2024-02-21T08:14:20;10.20;99.90
54429;DHT22;40337;52.978;6.310;2024-02-21T08:16:46;10.20;99.90
54429;DHT22;40337;52.978;6.310;2024-02-21T08:19:12;10.20;99.90
54429;DHT22;40337;52.978;6.310;2024-02-21T08:21:38;10.20;99.90
54429;DHT22;40337;52.978;6.310;2024-02-21T08:24:04;10.20;99.90
54429;DHT22;40337;52.978;6.310;2024-02-21T08:26:29;10.20;99.90
54429;DHT22;40337;52.978;6.310;2024-02-21T08:28:56;10.20;99.90
54429;DHT22;40337;52.978;6.310;2024-02-21T08:31:25;10.20;99.90
54429;DHT22;40337;52.978;6.310;2024-02-21T08:33:57;10.20;99.90
54429;DHT22;40337;52.978;6.310;2024-02-21T08:36:28;10.20;99.90
54429;DHT22;40337;52.978;6.310;2024-02-21T08:38:55;10.20;99.90
54429;DHT22;40337;52.978;6.310;2024-02-21T08:41:20;10.20;99.90
54429;DHT22;40337;52.978;6.310;2024-02-21T08:43:49;10.30;99.90
54429;DHT22;40337;52.978;6.310;2024-02-21T08:46:15;10.30;99.90
54429;DHT22;40337;52.978;6.310;2024-02-21T08:48:40;10.30;99.90
54429;DHT22;40337;52.978;6.310;2024-02-21T08:51:06;10.20;99.90
54429;DHT22;40337;52.978;6.310;2024-02-21T08:53:32;10.20;99.90
54429;DHT22;40337;52.978;6.310;2024-02-21T08:55:58;10.20;99.90
54429;DHT22;40337;52.978;6.310;2024-02-21T08:58:24;10.20;99.90
54429;DHT22;40337;52.978;6.310;2024-02-21T09:00:52;10.20;99.90
54429;DHT22;40337;52.978;6.310;2024-02-21T09:03:17;10.20;99.90
54429;DHT22;40337;52.978;6.310;2024-02-21T09:05:45;10.20;99.90
54429;DHT22;40337;52.978;6.310;2024-02-21T09:08:12;10.20;99.90
54429;DHT22;40337;52.978;6.310;2024-02-21T09:10:39;10.20;99.90
54429;DHT22;40337;52.978;6.310;2024-02-21T09:13:04;10.20;99.90
54429;DHT22;40337;52.978;6.310;2024-02-21T09:15:31;10.30;99.90
54429;DHT22;40337;52.978;6.310;2024-02-21T09:17:57;10.30;99.90
54429;DHT22;40337;52.978;6.310;2024-02-21T09:20:23;10.30;99.90
54429;DHT22;40337;52.978;6.310;2024-02-21T09:22:49;10.30;99.90
54429;DHT22;40337;52.978;6.310;2024-02-21T09:25:14;10.30;99.90
54429;DHT22;40337;52.978;6.310;2024-02-21T09:27:40;10.30;99.90
54429;DHT22;40337;52.978;6.310;2024-02-21T09:30:06;10.30;99.90
54429;DHT22;40337;52.978;6.310;2024-02-21T09:32:32;10.30;99.90
54429;DHT22;40337;52.978;6.310;2024-02-21T09:34:58;10.30;99.90
54429;DHT22;40337;52.978;6.310;2024-02-21T09:37:24;10.30;99.90
54429;DHT22;40337;52.978;6.310;2024-02-21T09:39:50;10.30;99.90
54429;DHT22;40337;52.978;6.310;2024-02-21T09:42:20;10.30;99.90
54429;DHT22;40337;52.978;6.310;2024-02-21T09:44:47;10.30;99.90
54429;DHT22;40337;52.978;6.310;2024-02-21T09:47:33;10.30;99.90
54429;DHT22;40337;52.978;6.310;2024-02-21T09:50:24;10.30;99.90
54429;DHT22;40337;52.978;6.310;2024-02-21T09:52:52;10.30;99.90
54429;DHT22;40337;52.978;6.310;2024-02-21T09:55:18;10.30;99.90
54429;DHT22;40337;52.978;6.310;2024-02-21T09:57:44;10.40;99.90
54429;DHT22;40337;52.978;6.310;2024-02-21T10:00:11;10.40;99.90
54429;DHT22;40337;52.978;6.310;2024-02-21T10:02:39;10.40;99.90
54429;DHT22;40337;52.978;6.310;2024-02-21T10:05:05;10.40;99.90
54429;DHT22;40337;52.978;6.310;2024-02-21T10:07:33;10.40;99.90
54429;DHT22;40337;52.978;6.310;2024-02-21T10:10:03;10.40;99.90
54429;DHT22;40337;52.978;6.310;2024-02-21T10:12:28;10.40;99.90
54429;DHT22;40337;52.978;6.310;2024-02-21T10:15:04;10.50;99.90
54429;DHT22;40337;52.978;6.310;2024-02-21T10:17:34;10.50;99.90
54429;DHT22;40337;52.978;6.310;2024-02-21T10:20:09;10.50;99.90
54429;DHT22;40337;52.978;6.310;2024-02-21T10:22:35;10.50;99.90
54429;DHT22;40337;52.978;6.310;2024-02-21T10:25:12;10.50;99.90
54429;DHT22;40337;52.978;6.310;2024-02-21T10:27:41;10.60;99.90
54429;DHT22;40337;52.978;6.310;2024-02-21T10:30:14;10.60;99.90
54429;DHT22;40337;52.978;6.310;2024-02-21T10:32:50;10.70;99.90
54429;DHT22;40337;52.978;6.310;2024-02-21T10:35:26;10.70;99.90
54429;DHT22;40337;52.978;6.310;2024-02-21T10:37:52;10.70;99.90
54429;DHT22;40337;52.978;6.310;2024-02-21T10:40:28;10.80;99.90
54429;DHT22;40337;52.978;6.310;2024-02-21T10:43:00;10.80;99.90
54429;DHT22;40337;52.978;6.310;2024-02-21T10:47:56;10.90;99.90
54429;DHT22;40337;52.978;6.310;2024-02-21T10:50:25;10.90;99.90
54429;DHT22;40337;52.978;6.310;2024-02-21T10:53:16;10.90;99.90
54429;DHT22;40337;52.978;6.310;2024-02-21T10:55:58;11.00;99.90
54429;DHT22;40337;52.978;6.310;2024-02-21T10:58:24;11.00;99.90
54429;DHT22;40337;52.978;6.310;2024-02-21T11:00:51;11.00;99.90
54429;DHT22;40337;52.978;6.310;2024-02-21T11:03:17;11.00;99.90
54429;DHT22;40337;52.978;6.310;2024-02-21T11:05:44;11.00;99.90
54429;DHT22;40337;52.978;6.310;2024-02-21T11:08:11;11.00;99.90
54429;DHT22;40337;52.978;6.310;2024-02-21T11:10:36;11.00;99.90
54429;DHT22;40337;52.978;6.310;2024-02-21T11:13:08;11.00;99.90
54429;DHT22;40337;52.978;6.310;2024-02-21T11:15:34;11.00;99.90
54429;DHT22;40337;52.978;6.310;2024-02-21T11:18:00;11.00;99.90
54429;DHT22;40337;52.978;6.310;2024-02-21T11:20:36;10.90;99.90
54429;DHT22;40337;52.978;6.310;2024-02-21T11:23:02;10.90;99.90
54429;DHT22;40337;52.978;6.310;2024-02-21T11:25:30;10.80;99.90
54429;DHT22;40337;52.978;6.310;2024-02-21T11:28:02;10.80;99.90
54429;DHT22;40337;52.978;6.310;2024-02-21T11:30:32;10.80;99.90
54429;DHT22;40337;52.978;6.310;2024-02-21T11:33:05;10.80;99.90
54429;DHT22;40337;52.978;6.310;2024-02-21T11:35:32;10.80;99.90
54429;DHT22;40337;52.978;6.310;2024-02-21T11:38:11;10.80;99.90
54429;DHT22;40337;52.978;6.310;2024-02-21T11:40:41;10.80;99.90
54429;DHT22;40337;52.978;6.310;2024-02-21T11:43:07;10.80;99.90
54429;DHT22;40337;52.978;6.310;2024-02-21T11:45:33;10.80;99.90
54429;DHT22;40337;52.978;6.310;2024-02-21T11:47:59;10.80;99.90
54429;DHT22;40337;52.978;6.310;2024-02-21T11:50:31;10.90;99.90
54429;DHT22;40337;52.978;6.310;2024-02-21T11:52:57;10.90;99.90
54429;DHT22;40337;52.978;6.310;2024-02-21T11:55:23;10.90;99.90
54429;DHT22;40337;52.978;6.310;2024-02-21T11:57:49;10.90;99.90
54429;DHT22;40337;52.978;6.310;2024-02-21T12:00:16;10.90;99.90
54429;DHT22;40337;52.978;6.310;2024-02-21T12:02:44;10.90;99.90
54429;DHT22;40337;52.978;6.310;2024-02-21T12:05:10;10.90;99.90
54429;DHT22;40337;52.978;6.310;2024-02-21T12:07:37;10.90;99.90
54429;DHT22;40337;52.978;6.310;2024-02-21T12:10:08;10.90;99.90
54429;DHT22;40337;52.978;6.310;2024-02-21T12:12:35;10.90;99.90
54429;DHT22;40337;52.978;6.310;2024-02-21T12:15:03;10.90;99.90
54429;DHT22;40337;52.978;6.310;2024-02-21T12:17:33;10.90;99.90
54429;DHT22;40337;52.978;6.310;2024-02-21T12:20:00;10.90;99.90
54429;DHT22;40337;52.978;6.310;2024-02-21T12:22:25;11.00;99.90
54429;DHT22;40337;52.978;6.310;2024-02-21T12:24:52;11.00;99.90
54429;DHT22;40337;52.978;6.310;2024-02-21T12:27:18;11.10;99.90
54429;DHT22;40337;52.978;6.310;2024-02-21T12:29:43;11.10;99.90
54429;DHT22;40337;52.978;6.310;2024-02-21T12:32:09;11.10;99.90
54429;DHT22;40337;52.978;6.310;2024-02-21T12:34:35;11.10;99.90
54429;DHT22;40337;52.978;6.310;2024-02-21T12:37:01;11.00;99.90
54429;DHT22;40337;52.978;6.310;2024-02-21T12:39:28;11.00;99.90
54429;DHT22;40337;52.978;6.310;2024-02-21T12:41:54;11.00;99.90
54429;DHT22;40337;52.978;6.310;2024-02-21T12:44:22;11.00;99.90
54429;DHT22;40337;52.978;6.310;2024-02-21T12:46:47;11.00;99.90
54429;DHT22;40337;52.978;6.310;2024-02-21T12:49:18;10.90;99.90
54429;DHT22;40337;52.978;6.310;2024-02-21T12:51:43;10.90;99.90
54429;DHT22;40337;52.978;6.310;2024-02-21T12:54:12;10.90;99.90
54429;DHT22;40337;52.978;6.310;2024-02-21T12:56:38;10.90;99.90
54429;DHT22;40337;52.978;6.310;2024-02-21T12:59:03;10.90;99.90
54429;DHT22;40337;52.978;6.310;2024-02-21T13:01:29;11.00;99.90
54429;DHT22;40337;52.978;6.310;2024-02-21T13:03:54;11.00;99.90
54429;DHT22;40337;52.978;6.310;2024-02-21T13:06:21;11.00;99.90
54429;DHT22;40337;52.978;6.310;2024-02-21T13:08:47;11.00;99.90
54429;DHT22;40337;52.978;6.310;2024-02-21T13:11:13;11.00;99.90
54429;DHT22;40337;52.978;6.310;2024-02-21T13:13:38;11.00;99.90
54429;DHT22;40337;52.978;6.310;2024-02-21T13:16:04;11.00;99.90
54429;DHT22;40337;52.978;6.310;2024-02-21T13:18:30;11.00;99.90
54429;DHT22;40337;52.978;6.310;2024-02-21T13:20:57;11.00;99.90
54429;DHT22;40337;52.978;6.310;2024-02-21T13:23:23;11.10;99.90
54429;DHT22;40337;52.978;6.310;2024-02-21T13:25:49;11.10;99.90
54429;DHT22;40337;52.978;6.310;2024-02-21T13:28:16;11.10;99.90
54429;DHT22;40337;52.978;6.310;2024-02-21T13:30:42;11.20;99.90
54429;DHT22;40337;52.978;6.310;2024-02-21T13:33:08;11.20;99.90
54429;DHT22;40337;52.978;6.310;2024-02-21T13:35:35;11.20;99.90
54429;DHT22;40337;52.978;6.310;2024-02-21T13:38:02;11.30;99.90
54429;DHT22;40337;52.978;6.310;2024-02-21T13:40:28;11.20;99.90
54429;DHT22;40337;52.978;6.310;2024-02-21T13:42:54;11.20;99.90
54429;DHT22;40337;52.978;6.310;2024-02-21T13:45:20;11.20;99.90
54429;DHT22;40337;52.978;6.310;2024-02-21T13:47:46;11.20;99.90
54429;DHT22;40337;52.978;6.310;2024-02-21T13:50:11;11.20;99.90
54429;DHT22;40337;52.978;6.310;2024-02-21T13:52:42;11.20;99.90
54429;DHT22;40337;52.978;6.310;2024-02-21T13:55:08;11.20;99.90
54429;DHT22;40337;52.978;6.310;2024-02-21T13:57:37;11.20;99.90
54429;DHT22;40337;52.978;6.310;2024-02-21T14:00:04;11.20;99.90
54429;DHT22;40337;52.978;6.310;2024-02-21T14:02:30;11.20;99.90
54429;DHT22;40337;52.978;6.310;2024-02-21T14:04:56;11.10;99.90
54429;DHT22;40337;52.978;6.310;2024-02-21T14:07:22;11.10;99.90
54429;DHT22;40337;52.978;6.310;2024-02-21T14:09:48;11.00;99.90
54429;DHT22;40337;52.978;6.310;2024-02-21T14:12:14;11.00;99.90
54429;DHT22;40337;52.978;6.310;2024-02-21T14:14:43;11.00;99.90
54429;DHT22;40337;52.978;6.310;2024-02-21T14:17:09;11.00;99.90
54429;DHT22;40337;52.978;6.310;2024-02-21T14:19:35;10.90;99.90
54429;DHT22;40337;52.978;6.310;2024-02-21T14:22:00;10.90;99.90
54429;DHT22;40337;52.978;6.310;2024-02-21T14:24:27;10.90;99.90
54429;DHT22;40337;52.978;6.310;2024-02-21T14:26:54;10.90;99.90
54429;DHT22;40337;52.978;6.310;2024-02-21T14:29:20;10.80;99.90
54429;DHT22;40337;52.978;6.310;2024-02-21T14:31:46;10.80;99.90
54429;DHT22;40337;52.978;6.310;2024-02-21T14:34:12;10.80;99.90
54429;DHT22;40337;52.978;6.310;2024-02-21T14:36:37;10.80;99.90
54429;DHT22;40337;52.978;6.310;2024-02-21T14:39:03;10.70;99.90
54429;DHT22;40337;52.978;6.310;2024-02-21T14:41:30;10.70;99.90
54429;DHT22;40337;52.978;6.310;2024-02-21T14:43:56;10.70;99.90
54429;DHT22;40337;52.978;6.310;2024-02-21T14:46:25;10.70;99.90
54429;DHT22;40337;52.978;6.310;2024-02-21T14:48:57;10.70;99.90
54429;DHT22;40337;52.978;6.310;2024-02-21T14:51:22;10.70;99.90
54429;DHT22;40337;52.978;6.310;2024-02-21T14:53:49;10.60;99.90
54429;DHT22;40337;52.978;6.310;2024-02-21T14:56:15;10.70;99.90
54429;DHT22;40337;52.978;6.310;2024-02-21T14:58:41;10.60;99.90
54429;DHT22;40337;52.978;6.310;2024-02-21T15:01:07;10.60;99.90
54429;DHT22;40337;52.978;6.310;2024-02-21T15:03:33;10.60;99.90
54429;DHT22;40337;52.978;6.310;2024-02-21T15:05:59;10.60;99.90
54429;DHT22;40337;52.978;6.310;2024-02-21T15:08:26;10.60;99.90
54429;DHT22;40337;52.978;6.310;2024-02-21T15:10:53;10.60;99.90
54429;DHT22;40337;52.978;6.310;2024-02-21T15:13:19;10.60;99.90
54429;DHT22;40337;52.978;6.310;2024-02-21T15:15:45;10.60;99.90
54429;DHT22;40337;52.978;6.310;2024-02-21T15:18:13;10.60;99.90
54429;DHT22;40337;52.978;6.310;2024-02-21T15:20:40;10.50;99.90
54429;DHT22;40337;52.978;6.310;2024-02-21T15:23:06;10.60;99.90
54429;DHT22;40337;52.978;6.310;2024-02-21T15:25:32;10.50;99.90
54429;DHT22;40337;52.978;6.310;2024-02-21T15:27:59;10.50;99.90
54429;DHT22;40337;52.978;6.310;2024-02-21T15:30:25;10.60;99.90